Time;durP1;ratioP1;P1;durP2;ratioP2;P2;SDS_P1;SDS_P2;PMS_P1;PMS_P2;Temp;Humidity;BMP_temperature;BMP_pressure;BME280_temperature;BME280_humidity;BME280_pressure;Samples;Min_cycle;Max_cycle;Signal;HPM_P1;HPM_P2
2020/12/25 08:49:06;;;;;;;6.20;1.52;;;;;;;2.84;71.84;102277.50;5130022;27;20745;-92
2020/12/25 08:51:35;;;;;;;6.63;1.35;;;;;;;3.05;71.71;102273.91;5087206;28;20059;-92
2020/12/25 08:54:00;;;;;;;5.13;1.13;;;;;;;3.21;71.49;102271.22;5077016;28;20028;-93
2020/12/25 08:56:27;;;;;;;5.70;0.93;;;;;;;3.28;70.13;102278.06;5064436;28;20364;-93
2020/12/25 08:59:02;;;;;;;6.00;1.50;;;;;;;3.40;69.91;102278.00;5053062;28;20020;-92
2020/12/25 09:01:31;;;;;;;4.72;0.80;;;;;;;3.33;69.54;102273.72;5068547;28;20029;-92
2020/12/25 09:03:58;;;;;;;10.02;1.30;;;;;;;3.53;69.48;102277.00;5068206;28;20024;-92
2020/12/25 09:06:24;;;;;;;3.78;1.27;;;;;;;3.61;69.19;102282.13;5088977;28;20115;-92
2020/12/25 09:08:49;;;;;;;4.68;1.10;;;;;;;3.72;69.34;102280.31;5069923;28;20437;-92
2020/12/25 09:11:17;;;;;;;4.20;1.10;;;;;;;3.79;68.61;102281.09;5088808;28;20115;-92
2020/12/25 09:13:43;;;;;;;3.45;0.88;;;;;;;3.95;69.26;102285.28;5085441;28;20060;-92
2020/12/25 09:16:09;;;;;;;2.20;0.80;;;;;;;4.02;69.02;102280.03;5062810;28;20052;-92
2020/12/25 09:18:36;;;;;;;3.83;1.13;;;;;;;3.94;68.28;102278.34;5066538;28;20453;-92
2020/12/25 09:21:02;;;;;;;3.30;0.90;;;;;;;4.07;68.04;102275.63;5062819;28;20070;-92
2020/12/25 09:23:28;;;;;;;4.55;1.00;;;;;;;4.26;68.24;102277.13;5085266;28;20048;-92
2020/12/25 09:25:54;;;;;;;2.92;1.02;;;;;;;4.22;66.89;102279.78;5080864;28;20058;-93
2020/12/25 09:28:19;;;;;;;4.40;1.08;;;;;;;4.46;66.59;102289.03;5060447;28;20036;-92
2020/12/25 09:30:45;;;;;;;7.75;1.23;;;;;;;4.37;66.46;102282.22;5069129;28;20390;-92
2020/12/25 09:33:10;;;;;;;8.25;1.48;;;;;;;4.56;67.20;102278.53;5088947;28;20093;-93
2020/12/25 09:35:36;;;;;;;3.03;1.60;;;;;;;4.83;66.63;102280.75;5064559;28;20489;-92
2020/12/25 09:38:01;;;;;;;2.15;1.10;;;;;;;4.39;65.91;102287.41;5076296;28;20036;-93
2020/12/25 09:40:27;;;;;;;3.28;1.02;;;;;;;4.39;67.21;102282.22;5082118;28;20028;-93
2020/12/25 09:42:53;;;;;;;6.50;1.20;;;;;;;4.63;65.13;102281.03;5052229;28;20443;-93
2020/12/25 09:45:18;;;;;;;2.83;0.95;;;;;;;4.97;63.55;102286.63;5072113;28;20044;-92
2020/12/25 09:47:44;;;;;;;3.90;1.20;;;;;;;4.60;65.60;102281.06;5069624;28;20024;-93
2020/12/25 09:50:09;;;;;;;5.10;1.17;;;;;;;4.75;65.33;102286.91;5068165;28;20025;-93
2020/12/25 09:52:35;;;;;;;2.83;1.48;;;;;;;5.05;64.99;102297.78;5056683;28;20260;-93
2020/12/25 09:55:01;;;;;;;5.35;1.33;;;;;;;5.05;64.10;102295.19;5056840;28;20032;-93
2020/12/25 09:57:26;;;;;;;2.78;1.25;;;;;;;5.28;63.18;102294.00;5071586;28;20459;-94
2020/12/25 09:59:54;;;;;;;5.97;1.25;;;;;;;5.22;63.30;102304.50;5037669;28;20365;-94
2020/12/25 10:02:20;;;;;;;4.72;2.10;;;;;;;6.30;61.35;102300.91;5043416;28;20028;-93
2020/12/25 10:04:45;;;;;;;3.97;1.13;;;;;;;6.68;58.60;102307.97;5053733;28;20028;-94
2020/12/25 10:07:11;;;;;;;5.65;1.33;;;;;;;7.12;56.04;102303.50;5050927;28;20027;-93
2020/12/25 10:09:37;;;;;;;4.25;1.40;;;;;;;8.01;54.34;102310.03;5054790;28;20116;-95
2020/12/25 10:12:03;;;;;;;3.78;1.33;;;;;;;7.84;54.76;102302.63;5051595;28;20036;-91
2020/12/25 10:14:28;;;;;;;3.78;1.30;;;;;;;8.60;52.70;102307.53;5042925;28;20499;-91
2020/12/25 10:16:53;;;;;;;3.63;1.20;;;;;;;8.86;52.23;102298.88;5038371;28;20029;-91
2020/12/25 10:19:19;;;;;;;6.20;1.38;;;;;;;9.62;52.31;102292.09;5061822;28;20027;-91
2020/12/25 10:21:44;;;;;;;3.78;1.27;;;;;;;10.30;49.52;102287.13;5046902;28;20099;-92
2020/12/25 10:24:10;;;;;;;4.18;1.10;;;;;;;10.94;49.68;102290.84;5053583;28;20021;-91
2020/12/25 10:26:36;;;;;;;4.13;1.55;;;;;;;10.90;46.07;102290.97;5055925;28;20541;-91
2020/12/25 10:29:01;;;;;;;3.40;1.50;;;;;;;11.30;49.26;102296.41;5054180;28;20033;-91
2020/12/25 10:31:26;;;;;;;6.60;2.50;;;;;;;11.38;46.95;102294.31;5056216;28;20116;-91
2020/12/25 10:33:52;;;;;;;2.67;1.23;;;;;;;11.52;46.62;102293.75;5041833;28;20108;-90
2020/12/25 10:36:23;;;;;;;5.93;1.58;;;;;;;11.11;44.97;102293.66;5046152;28;20048;-93
2020/12/25 10:38:48;;;;;;;8.75;1.92;;;;;;;11.40;46.74;102297.75;5056448;28;20124;-92
2020/12/25 10:41:13;;;;;;;4.70;1.48;;;;;;;11.40;44.94;102287.22;5036586;28;20527;-92
2020/12/25 10:43:39;;;;;;;6.13;1.60;;;;;;;11.34;47.25;102291.88;5053438;28;20492;-91
2020/12/25 10:46:04;;;;;;;7.05;2.35;;;;;;;11.41;46.45;102286.28;5064206;28;20475;-94
2020/12/25 10:48:29;;;;;;;4.85;1.60;;;;;;;11.38;45.79;102278.53;5054495;28;20039;-92
2020/12/25 10:50:55;;;;;;;4.07;1.75;;;;;;;11.50;45.83;102288.53;5053206;28;20050;-92
2020/12/25 10:53:20;;;;;;;5.53;1.80;;;;;;;11.85;44.71;102291.47;5072264;28;20028;-93
2020/12/25 10:55:45;;;;;;;5.95;1.58;;;;;;;11.84;45.96;102279.22;5049646;28;20058;-93
2020/12/25 10:58:11;;;;;;;7.25;3.42;;;;;;;12.05;44.04;102276.59;5064661;28;20471;-95
2020/12/25 11:00:36;;;;;;;7.13;2.95;;;;;;;11.83;42.86;102266.97;5052499;28;20086;-94
2020/12/25 11:03:02;;;;;;;6.55;2.78;;;;;;;11.84;44.55;102263.41;5037350;28;20104;-93
2020/12/25 11:05:27;;;;;;;9.65;2.65;;;;;;;12.35;44.28;102265.63;5041040;28;20011;-94
2020/12/25 11:07:57;;;;;;;4.47;2.65;;;;;;;12.80;44.71;102272.31;5063953;28;20084;-94
2020/12/25 11:10:22;;;;;;;8.02;2.65;;;;;;;12.88;43.29;102270.16;5054356;28;20479;-93
2020/12/25 11:12:48;;;;;;;6.28;3.33;;;;;;;13.23;43.48;102270.19;5042385;28;20112;-93
2020/12/25 11:15:13;;;;;;;8.73;3.03;;;;;;;13.14;42.50;102260.13;5055127;28;20047;-94
2020/12/25 11:17:38;;;;;;;9.75;2.22;;;;;;;13.20;42.22;102258.03;5054841;28;20490;-94
2020/12/25 11:20:03;;;;;;;7.75;4.30;;;;;;;13.35;41.11;102256.47;5053032;28;20360;-94
2020/12/25 11:22:29;;;;;;;7.47;3.63;;;;;;;13.00;40.82;102251.09;5037284;28;20506;-93
2020/12/25 11:24:54;;;;;;;8.48;3.90;;;;;;;13.20;43.29;102258.03;5055200;28;20472;-94
2020/12/25 11:27:20;;;;;;;12.55;5.60;;;;;;;13.55;42.70;102251.97;5041149;28;20037;-94
2020/12/25 11:29:45;;;;;;;10.98;6.60;;;;;;;13.91;43.00;102243.06;5075869;28;20064;-92
2020/12/25 11:32:10;;;;;;;16.33;5.00;;;;;;;13.99;42.00;102243.50;5072492;28;20099;-96
2020/12/25 11:34:36;;;;;;;9.57;4.57;;;;;;;13.99;42.19;102236.41;5041900;28;20134;-95
2020/12/25 11:37:01;;;;;;;4.70;1.58;;;;;;;13.91;39.07;102229.84;5035176;28;20104;-94
2020/12/25 11:39:26;;;;;;;6.50;2.20;;;;;;;13.97;40.84;102232.16;5036199;28;20057;-96
2020/12/25 11:41:52;;;;;;;23.17;15.73;;;;;;;13.81;42.60;102224.22;5036177;28;20383;-95
2020/12/25 11:44:17;;;;;;;16.48;11.55;;;;;;;14.12;41.53;102226.06;5044389;28;20025;-94
2020/12/25 11:46:42;;;;;;;16.10;11.57;;;;;;;14.09;39.29;102221.78;5052585;28;20032;-94
2020/12/25 11:49:08;;;;;;;15.68;6.45;;;;;;;13.48;40.58;102228.50;5038199;28;20054;-95
2020/12/25 11:51:34;;;;;;;3.92;1.98;;;;;;;13.40;42.82;102225.41;5071819;28;20028;-95
2020/12/25 11:54:00;;;;;;;7.68;4.53;;;;;;;13.73;42.73;102229.03;5052575;28;20402;-94
2020/12/25 11:56:29;;;;;;;9.00;5.28;;;;;;;13.58;43.21;102235.94;5055500;28;20032;-94
2020/12/25 11:59:04;;;;;;;14.68;10.80;;;;;;;13.54;41.25;102213.28;5065631;28;20050;-95
2020/12/25 12:01:30;;;;;;;6.55;3.95;;;;;;;13.69;42.76;102209.88;5042294;28;20025;-95
2020/12/25 12:03:55;;;;;;;7.97;5.38;;;;;;;13.73;39.99;102206.13;5061346;28;20028;-95
2020/12/25 12:06:22;;;;;;;8.98;6.38;;;;;;;13.86;39.72;102203.69;5052810;28;20032;-93
2020/12/25 12:08:48;;;;;;;15.52;9.88;;;;;;;13.74;39.71;102199.91;5034000;28;20025;-94
2020/12/25 12:11:14;;;;;;;11.73;7.90;;;;;;;13.75;39.95;102192.84;5054743;28;20103;-96
2020/12/25 12:13:39;;;;;;;26.52;18.55;;;;;;;13.87;42.69;102206.25;5046992;28;20471;-96
2020/12/25 12:16:16;;;;;;;30.77;20.35;;;;;;;13.33;41.37;102205.56;5056663;28;20025;-95
2020/12/25 12:18:41;;;;;;;18.40;14.10;;;;;;;13.75;41.41;102191.06;5057453;28;20354;-95
2020/12/25 12:21:08;;;;;;;6.70;4.68;;;;;;;13.81;41.84;102195.16;5056558;28;20317;-91
2020/12/25 12:23:34;;;;;;;25.70;17.25;;;;;;;14.13;39.46;102198.69;5034328;28;20056;-90
2020/12/25 12:25:59;;;;;;;15.52;9.63;;;;;;;14.39;40.71;102186.69;5055010;28;20063;-90
2020/12/25 12:28:25;;;;;;;10.82;6.95;;;;;;;13.98;42.40;102184.56;5056352;28;20806;-91
2020/12/25 12:30:50;;;;;;;11.02;6.35;;;;;;;14.26;38.99;102178.59;5072045;28;20122;-90
2020/12/25 12:33:15;;;;;;;6.15;1.90;;;;;;;14.28;39.12;102171.44;5063411;28;20024;-93
2020/12/25 12:35:41;;;;;;;3.22;1.30;;;;;;;14.17;40.90;102168.53;5047101;28;20025;-87
2020/12/25 12:38:06;;;;;;;2.40;0.93;;;;;;;14.11;39.16;102162.75;5066413;28;20021;-90
2020/12/25 12:40:31;;;;;;;2.00;0.90;;;;;;;13.95;39.30;102155.66;5071467;28;20020;-89
2020/12/25 12:42:57;;;;;;;7.50;2.50;;;;;;;13.19;39.75;102147.31;5059861;28;20021;-88
2020/12/25 12:45:22;;;;;;;3.35;0.80;;;;;;;12.11;42.23;102144.69;5033631;28;20044;-89
2020/12/25 12:47:47;;;;;;;3.53;1.70;;;;;;;11.75;43.47;102147.16;5033397;28;20040;-91
2020/12/25 12:50:13;;;;;;;2.80;0.85;;;;;;;11.59;44.48;102154.91;5051443;28;20021;-89
2020/12/25 12:52:38;;;;;;;2.22;0.55;;;;;;;11.27;47.28;102147.47;5062857;28;20105;-88
2020/12/25 12:55:04;;;;;;;1.35;0.60;;;;;;;11.03;46.70;102154.66;5070253;28;20459;-90
2020/12/25 12:57:29;;;;;;;3.22;0.68;;;;;;;10.84;45.49;102151.06;5049142;28;20032;-90
2020/12/25 12:59:55;;;;;;;3.97;0.60;;;;;;;10.35;47.49;102145.16;5072514;28;20023;-91
2020/12/25 13:02:20;;;;;;;3.03;0.65;;;;;;;9.99;48.27;102150.88;5057027;28;20031;-92
2020/12/25 13:04:46;;;;;;;3.80;0.80;;;;;;;9.56;50.30;102150.69;5022164;28;20093;-92
2020/12/25 13:07:13;;;;;;;2.40;0.57;;;;;;;8.99;50.61;102142.19;5040024;28;20025;-94
2020/12/25 13:09:40;;;;;;;4.57;0.75;;;;;;;8.92;50.81;102153.75;5041778;28;20038;-92
2020/12/25 13:12:05;;;;;;;3.60;0.80;;;;;;;9.05;52.75;102143.75;5031417;28;20032;-92
2020/12/25 13:14:31;;;;;;;9.18;2.40;;;;;;;8.48;51.66;102137.72;5030384;28;20912;-93
2020/12/25 13:16:57;;;;;;;3.88;0.90;;;;;;;8.61;52.28;102136.44;5041539;28;20556;-94
2020/12/25 13:19:22;;;;;;;5.13;1.20;;;;;;;8.21;52.77;102142.84;5028792;28;20506;-94
2020/12/25 13:21:48;;;;;;;3.70;1.67;;;;;;;8.40;52.71;102140.53;5027209;28;20025;-94
2020/12/25 13:24:14;;;;;;;6.40;3.60;;;;;;;8.66;54.99;102133.66;5028363;28;20029;-93
2020/12/25 13:26:39;;;;;;;18.88;7.72;;;;;;;8.40;55.55;102137.06;5033436;28;20025;-93
2020/12/25 13:29:05;;;;;;;5.68;3.20;;;;;;;8.63;53.26;102128.50;5032651;28;20021;-93
2020/12/25 13:31:31;;;;;;;9.00;4.70;;;;;;;8.66;53.02;102131.88;5031634;28;20076;-93
2020/12/25 13:33:57;;;;;;;13.10;5.38;;;;;;;8.51;53.32;102132.38;5031647;28;20499;-93
2020/12/25 13:36:23;;;;;;;14.38;4.93;;;;;;;8.64;53.09;102122.38;5033300;28;20021;-94
2020/12/25 13:38:50;;;;;;;7.32;4.35;;;;;;;8.61;53.20;102123.34;5025329;28;20040;-93
2020/12/25 13:41:21;;;;;;;8.02;3.72;;;;;;;8.61;53.33;102123.34;5033564;28;20546;-94
2020/12/25 13:43:47;;;;;;;9.38;2.60;;;;;;;8.49;53.69;102121.09;5026799;28;20028;-94
2020/12/25 13:46:17;;;;;;;3.92;2.20;;;;;;;8.28;54.76;102115.59;5014165;28;20384;-94
2020/12/25 13:48:42;;;;;;;3.67;1.92;;;;;;;8.26;55.71;102130.50;5049726;28;20037;-94
2020/12/25 13:51:13;;;;;;;4.82;1.52;;;;;;;8.18;55.81;102135.13;5032866;28;20033;-93
2020/12/25 13:53:38;;;;;;;6.18;2.17;;;;;;;7.98;55.30;102132.22;5033302;28;20021;-93
2020/12/25 13:56:04;;;;;;;3.20;1.00;;;;;;;7.85;56.26;102140.44;5034304;28;20388;-94
2020/12/25 13:58:29;;;;;;;8.30;2.28;;;;;;;7.71;57.44;102129.50;5033551;28;20068;-93
2020/12/25 14:00:54;;;;;;;4.53;1.48;;;;;;;7.64;56.83;102123.63;5034804;28;20029;-94
2020/12/25 14:03:20;;;;;;;6.22;1.42;;;;;;;7.65;58.13;102127.09;5032733;28;20108;-94
2020/12/25 14:05:45;;;;;;;6.88;3.03;;;;;;;7.51;57.75;102130.94;5033783;28;20053;-94
2020/12/25 14:08:10;;;;;;;4.63;1.48;;;;;;;7.54;59.24;102132.59;5033500;28;20033;-94
2020/12/25 14:10:36;;;;;;;6.93;2.80;;;;;;;7.69;56.06;102128.72;5033054;28;20087;-93
2020/12/25 14:13:01;;;;;;;5.68;1.38;;;;;;;7.46;57.95;102132.78;5033381;28;20459;-92
2020/12/25 14:15:26;;;;;;;4.22;2.00;;;;;;;7.42;57.17;102125.94;5019404;28;20045;-94
2020/12/25 14:17:53;;;;;;;9.27;2.72;;;;;;;7.33;57.44;102134.06;5029313;28;20084;-93
2020/12/25 14:20:18;;;;;;;6.25;2.63;;;;;;;7.34;56.77;102127.91;5022147;28;20021;-94
2020/12/25 14:22:44;;;;;;;7.47;3.17;;;;;;;7.59;57.46;102124.63;5033217;28;20025;-94
2020/12/25 14:25:09;;;;;;;5.80;2.15;;;;;;;7.51;57.95;102123.09;5034229;28;20029;-94
2020/12/25 14:27:34;;;;;;;6.88;1.75;;;;;;;7.47;57.17;102121.47;5033255;28;20468;-93
2020/12/25 14:30:00;;;;;;;2.97;1.00;;;;;;;7.34;58.75;102118.31;5034120;28;20030;-94
2020/12/25 14:32:27;;;;;;;4.78;1.10;;;;;;;7.53;57.99;102123.91;5033760;28;20384;-94
2020/12/25 14:34:53;;;;;;;5.00;2.00;;;;;;;7.51;57.38;102120.47;5033175;28;20025;-94
2020/12/25 14:37:19;;;;;;;5.53;1.42;;;;;;;7.39;59.24;102125.19;5032981;28;20120;-94
2020/12/25 14:39:45;;;;;;;7.47;2.15;;;;;;;7.30;57.64;102128.88;5031960;28;20633;-93
2020/12/25 14:42:10;;;;;;;4.25;1.58;;;;;;;7.31;58.31;102117.56;5016104;28;20419;-92
2020/12/25 14:44:36;;;;;;;3.10;1.35;;;;;;;7.26;58.53;102111.59;5032270;28;20080;-94
2020/12/25 14:47:01;;;;;;;2.47;1.23;;;;;;;7.44;59.62;102115.44;5031199;28;20038;-89
2020/12/25 14:49:26;;;;;;;4.60;1.40;;;;;;;7.50;57.71;102107.44;5030487;28;20068;-94
2020/12/25 14:51:52;;;;;;;4.57;1.60;;;;;;;7.46;58.50;102108.41;5032802;28;20418;-93
2020/12/25 14:54:19;;;;;;;10.25;1.92;;;;;;;7.26;58.41;102101.13;5034042;28;20037;-90
2020/12/25 14:56:44;;;;;;;6.60;2.95;;;;;;;7.12;58.66;102104.97;5015118;28;20033;-88
2020/12/25 14:59:09;;;;;;;9.80;4.32;;;;;;;7.27;59.52;102113.31;5022308;28;20017;-89
2020/12/25 15:01:36;;;;;;;13.40;6.35;;;;;;;7.24;60.03;102118.59;5015365;28;20026;-89
2020/12/25 15:04:02;;;;;;;10.52;5.13;;;;;;;7.04;59.69;102113.91;5012042;28;20080;-88
2020/12/25 15:06:28;;;;;;;6.03;3.58;;;;;;;6.96;61.78;102116.72;5014482;28;20408;-89
2020/12/25 15:08:56;;;;;;;10.75;5.40;;;;;;;7.11;61.63;102111.09;5027868;28;20025;-89
2020/12/25 15:11:23;;;;;;;8.35;5.25;;;;;;;7.19;61.58;102125.69;5035347;28;20083;-91
2020/12/25 15:13:49;;;;;;;11.48;3.80;;;;;;;7.08;58.94;102118.16;5020326;28;20030;-88
2020/12/25 15:16:22;;;;;;;6.32;3.60;;;;;;;7.03;60.97;102120.91;5013864;28;20026;-88
2020/12/25 15:18:48;;;;;;;6.63;4.25;;;;;;;6.77;61.04;102118.06;5021458;28;20322;-88
2020/12/25 15:21:14;;;;;;;3.17;1.48;;;;;;;6.75;58.22;102115.47;5032508;28;20442;-87
2020/12/25 15:23:40;;;;;;;5.30;2.17;;;;;;;6.85;60.95;102117.00;5032528;28;20029;-87
2020/12/25 15:26:05;;;;;;;6.68;2.90;;;;;;;6.87;61.68;102109.97;5032366;28;20480;-89
2020/12/25 15:28:31;;;;;;;9.60;5.38;;;;;;;6.86;61.77;102117.84;5032682;28;20373;-87
2020/12/25 15:30:57;;;;;;;8.55;4.18;;;;;;;6.86;62.67;102102.19;5033324;28;20033;-87
2020/12/25 15:33:22;;;;;;;11.57;6.10;;;;;;;6.86;62.77;102103.03;5032131;28;20068;-85
2020/12/25 15:35:49;;;;;;;11.60;6.82;;;;;;;6.80;62.16;102099.72;5032734;28;20522;-90
2020/12/25 15:38:15;;;;;;;15.70;7.55;;;;;;;6.80;62.38;102099.72;5032538;28;20029;-88
2020/12/25 15:40:40;;;;;;;12.45;5.65;;;;;;;6.72;61.64;102099.91;5032294;28;20096;-88
2020/12/25 15:43:06;;;;;;;9.70;5.65;;;;;;;6.73;62.62;102102.50;5032621;28;20036;-88
2020/12/25 15:45:31;;;;;;;22.50;9.30;;;;;;;6.58;62.96;102091.56;5032238;28;20104;-90
2020/12/25 15:47:56;;;;;;;16.42;8.23;;;;;;;6.65;64.51;102104.41;5031807;28;20476;-88
2020/12/25 15:50:22;;;;;;;15.50;7.38;;;;;;;6.63;64.70;102107.97;5030858;28;20036;-87
2020/12/25 15:52:47;;;;;;;12.38;6.03;;;;;;;6.55;64.59;102102.91;5032288;28;20021;-87
2020/12/25 15:55:12;;;;;;;12.48;6.68;;;;;;;6.50;64.54;102094.38;5033576;28;20511;-91
2020/12/25 15:57:38;;;;;;;15.65;7.78;;;;;;;6.40;65.20;102092.84;5018419;28;20113;-94
2020/12/25 16:00:05;;;;;;;18.00;8.32;;;;;;;6.23;63.78;102090.63;5031622;28;20115;-89
2020/12/25 16:02:31;;;;;;;20.42;7.78;;;;;;;6.24;63.55;102085.41;5032384;28;20124;-88
2020/12/25 18:20:02;;;;;;;4.35;2.35;;;;;;;4.97;70.99;101982.91;5079342;28;20405;-86
2020/12/25 18:22:28;;;;;;;4.47;2.30;;;;;;;5.01;70.48;101983.72;5046440;28;20033;-88
2020/12/25 18:24:54;;;;;;;6.03;2.60;;;;;;;5.05;70.80;101980.16;5043149;28;20029;-86
2020/12/25 18:27:19;;;;;;;6.65;3.45;;;;;;;4.85;68.78;101984.91;5040160;28;20046;-85
2020/12/25 18:29:45;;;;;;;6.32;2.95;;;;;;;4.87;69.52;101977.91;5047959;28;20041;-85
2020/12/25 18:32:10;;;;;;;5.80;3.40;;;;;;;4.92;70.53;101968.28;5029949;28;20034;-85
2020/12/25 18:34:36;;;;;;;8.80;3.90;;;;;;;5.09;71.15;101971.38;5043998;28;20025;-85
2020/12/25 18:37:01;;;;;;;6.85;4.07;;;;;;;5.02;69.36;101961.16;5047958;28;20026;-85
2020/12/25 18:39:27;;;;;;;5.60;3.28;;;;;;;4.85;70.30;101961.47;5048139;28;20048;-85
2020/12/25 18:41:53;;;;;;;8.55;3.00;;;;;;;4.90;71.66;101967.47;5048216;28;20088;-85
2020/12/25 18:44:19;;;;;;;8.85;2.92;;;;;;;4.92;71.11;101965.69;5028553;28;20532;-85
2020/12/25 18:46:44;;;;;;;9.05;2.95;;;;;;;4.76;71.68;101947.75;5043957;28;20116;-85
2020/12/25 18:49:11;;;;;;;5.30;2.80;;;;;;;4.94;70.88;101943.09;5047897;28;20095;-85
2020/12/25 18:51:36;;;;;;;4.10;2.30;;;;;;;5.01;70.24;101939.44;5048104;28;20373;-85
2020/12/25 18:54:01;;;;;;;9.30;3.35;;;;;;;4.92;69.39;101939.66;5048265;28;20045;-85
2020/12/25 18:56:27;;;;;;;4.60;3.10;;;;;;;4.69;70.00;101943.53;5043402;28;20079;-85
2020/12/25 18:58:52;;;;;;;5.53;3.08;;;;;;;4.57;68.42;101954.19;5048325;28;20025;-85
2020/12/25 19:01:18;;;;;;;5.78;3.45;;;;;;;4.51;71.08;101954.28;5047166;28;20029;-85
2020/12/25 19:03:43;;;;;;;6.38;4.13;;;;;;;4.62;72.13;101959.28;5046229;28;20083;-85
2020/12/25 19:06:09;;;;;;;6.60;2.90;;;;;;;4.66;71.30;101961.84;5047823;28;20437;-87
2020/12/25 19:08:35;;;;;;;7.25;3.53;;;;;;;4.70;71.23;101967.81;5051057;28;20040;-85
2020/12/25 19:11:00;;;;;;;8.88;3.20;;;;;;;4.68;71.05;101978.28;5052845;28;20453;-93
2020/12/25 19:13:26;;;;;;;8.15;3.33;;;;;;;4.69;70.90;101973.91;5048698;28;20025;-85
2020/12/25 19:15:54;;;;;;;8.07;4.05;;;;;;;4.55;71.79;101971.56;5046838;28;20033;-85
2020/12/25 19:18:21;;;;;;;5.00;3.22;;;;;;;4.69;72.04;101969.56;5047600;28;20050;-85
2020/12/25 19:20:47;;;;;;;6.47;2.92;;;;;;;4.81;71.86;101972.81;5034706;28;20063;-85
2020/12/25 19:23:12;;;;;;;6.45;3.95;;;;;;;4.79;71.39;101961.59;5033526;28;20104;-84
2020/12/25 19:25:38;;;;;;;7.05;3.33;;;;;;;4.75;70.05;101966.84;5034418;28;20104;-85
2020/12/25 19:28:03;;;;;;;7.35;3.20;;;;;;;4.57;70.22;101960.22;5034292;28;20112;-85
2020/12/25 19:30:28;;;;;;;5.18;3.38;;;;;;;4.68;71.21;101956.56;5035162;28;20065;-84
2020/12/25 19:32:54;;;;;;;11.50;3.65;;;;;;;4.67;71.73;101960.06;5033516;28;20053;-84
2020/12/25 19:35:19;;;;;;;5.63;2.95;;;;;;;4.57;70.13;101969.78;5034027;28;20026;-85
2020/12/25 19:37:44;;;;;;;11.45;3.42;;;;;;;4.63;71.56;101969.69;5033726;28;20029;-84
2020/12/25 19:40:10;;;;;;;7.22;3.38;;;;;;;4.67;71.37;101968.72;5034298;28;20450;-84
2020/12/25 19:42:35;;;;;;;5.47;2.97;;;;;;;4.66;72.08;101959.22;5034100;28;20079;-85
2020/12/25 19:45:02;;;;;;;8.32;3.30;;;;;;;4.71;72.00;101951.31;5034089;28;20025;-85
2020/12/25 19:47:28;;;;;;;4.50;3.53;;;;;;;4.67;70.69;101958.31;5031324;28;20052;-85
2020/12/25 19:49:53;;;;;;;8.73;3.80;;;;;;;4.63;71.35;101950.63;5030987;28;20107;-85
2020/12/25 19:52:18;;;;;;;8.55;3.45;;;;;;;4.46;71.56;101956.09;5026517;28;20129;-85
2020/12/25 19:54:44;;;;;;;4.93;3.20;;;;;;;4.51;71.28;101955.16;5025463;28;20033;-85
2020/12/25 19:57:10;;;;;;;5.63;3.33;;;;;;;4.51;70.98;101959.50;5033951;28;20112;-84
2020/12/25 19:59:35;;;;;;;7.45;3.17;;;;;;;4.47;70.68;101957.84;5033393;28;20529;-85
2020/12/25 20:02:01;;;;;;;8.30;3.45;;;;;;;4.02;70.72;101949.91;5033571;28;20063;-85
2020/12/25 20:04:26;;;;;;;7.78;4.05;;;;;;;4.26;70.83;101949.50;5032704;28;20025;-85
2020/12/25 20:06:53;;;;;;;7.40;4.03;;;;;;;4.19;72.31;101947.91;5031663;28;20504;-85
2020/12/25 20:09:18;;;;;;;7.47;3.40;;;;;;;4.31;72.59;101946.84;5033247;28;20495;-85
2020/12/25 20:11:48;;;;;;;7.80;3.67;;;;;;;4.33;72.02;101935.53;5033628;28;20030;-85
2020/12/25 20:14:14;;;;;;;6.78;3.90;;;;;;;4.40;72.56;101940.63;5032561;28;20026;-85
2020/12/25 20:16:39;;;;;;;7.38;4.50;;;;;;;4.41;72.20;101942.34;5033605;28;20032;-85
2020/12/25 20:19:05;;;;;;;5.22;3.42;;;;;;;4.41;72.14;101947.53;5032088;28;20021;-85
2020/12/25 20:21:30;;;;;;;10.93;3.55;;;;;;;4.42;72.81;101942.28;5033125;28;20475;-85
2020/12/25 20:23:55;;;;;;;6.32;3.30;;;;;;;4.45;72.85;101946.59;5032817;28;20464;-85
2020/12/25 20:26:21;;;;;;;7.97;4.47;;;;;;;4.01;72.35;101948.19;5033352;28;20022;-85
2020/12/25 20:28:47;;;;;;;5.63;3.70;;;;;;;4.25;72.43;101959.97;5032185;28;20036;-84
2020/12/25 20:31:17;;;;;;;7.55;3.80;;;;;;;4.31;70.83;101955.50;5032540;28;20036;-85
2020/12/25 20:33:43;;;;;;;8.20;4.40;;;;;;;4.32;70.99;101959.78;5033280;28;20089;-85
2020/12/25 20:36:14;;;;;;;14.93;6.72;;;;;;;4.01;72.53;101955.97;5032687;28;20032;-85
2020/12/25 20:38:39;;;;;;;10.18;5.00;;;;;;;4.14;72.55;101954.91;5032666;28;20108;-85
2020/12/25 20:41:06;;;;;;;9.80;4.13;;;;;;;4.23;72.73;101948.72;5032733;28;20168;-85
2020/12/25 20:43:32;;;;;;;8.63;3.80;;;;;;;4.22;72.12;101947.84;5032409;28;20021;-85
2020/12/25 20:45:57;;;;;;;5.22;4.15;;;;;;;4.30;72.81;101929.50;5032027;28;20049;-85
2020/12/25 20:48:22;;;;;;;6.68;4.43;;;;;;;4.35;72.59;101933.75;5032977;28;20072;-85
2020/12/25 20:50:48;;;;;;;8.75;4.75;;;;;;;4.41;73.39;101945.78;5032253;28;20031;-85
2020/12/25 20:53:15;;;;;;;10.20;5.00;;;;;;;4.49;73.60;101945.66;5032761;28;20047;-85
2020/12/25 20:55:40;;;;;;;12.57;5.68;;;;;;;4.47;72.36;101942.22;5032449;28;20536;-85
2020/12/25 20:58:06;;;;;;;11.93;5.53;;;;;;;4.46;73.19;101935.31;5032201;28;20120;-85
2020/12/25 21:00:32;;;;;;;17.23;5.18;;;;;;;4.58;73.68;101940.28;5032610;28;20035;-85
2020/12/25 21:02:58;;;;;;;9.48;4.40;;;;;;;4.66;73.23;101938.41;5031660;28;20101;-85
2020/12/25 21:05:23;;;;;;;9.70;5.03;;;;;;;4.69;72.50;101942.69;5031378;28;20116;-85
2020/12/25 21:07:48;;;;;;;10.57;6.00;;;;;;;4.72;74.53;101942.63;5032567;28;20373;-85
2020/12/25 21:10:15;;;;;;;8.77;5.07;;;;;;;4.92;73.69;101945.72;5031913;28;20030;-85
2020/12/25 21:12:40;;;;;;;10.85;5.65;;;;;;;5.04;74.01;101941.16;5032855;28;20076;-85
2020/12/25 21:15:06;;;;;;;8.13;5.13;;;;;;;4.59;73.24;101934.19;5032426;28;20026;-84
2020/12/25 21:17:31;;;;;;;8.98;5.55;;;;;;;4.90;72.79;101946.63;5022160;28;20442;-85
2020/12/25 21:19:57;;;;;;;8.43;5.10;;;;;;;4.97;71.98;101932.59;5019386;28;20104;-85
2020/12/25 21:22:22;;;;;;;7.93;4.70;;;;;;;5.06;72.60;101934.16;5031264;28;20026;-86
2020/12/25 21:24:47;;;;;;;9.43;5.57;;;;;;;5.06;72.62;101919.41;5032081;28;20079;-85
2020/12/25 21:27:14;;;;;;;51.60;46.08;;;;;;;4.92;71.07;101924.03;5031481;28;20025;-85
2020/12/25 21:29:40;;;;;;;27.60;24.60;;;;;;;4.92;71.85;101918.84;5031916;28;20025;-85
2020/12/25 21:32:09;;;;;;;10.27;5.68;;;;;;;4.51;73.04;101910.06;5032419;28;20372;-85
2020/12/25 21:34:36;;;;;;;8.85;5.32;;;;;;;4.80;73.09;101911.25;5032011;28;20061;-86
2020/12/25 21:37:02;;;;;;;15.05;6.05;;;;;;;4.83;71.88;101911.19;5032131;28;20078;-85
2020/12/25 21:39:28;;;;;;;10.57;5.22;;;;;;;4.78;70.89;101911.31;5032159;28;20033;-85
2020/12/25 21:41:53;;;;;;;8.00;5.10;;;;;;;4.75;73.04;101912.19;5030633;28;20072;-85
2020/12/25 21:44:18;;;;;;;9.70;5.03;;;;;;;4.77;72.41;101904.38;5030815;28;20104;-85
2020/12/25 21:46:48;;;;;;;10.60;5.97;;;;;;;4.75;72.56;101896.59;5021882;28;20056;-85
2020/12/25 21:49:15;;;;;;;8.85;5.28;;;;;;;4.79;73.09;101896.53;5030878;28;20033;-85
2020/12/25 21:51:42;;;;;;;13.55;5.60;;;;;;;4.82;72.40;101896.47;5031599;28;20030;-86
2020/12/25 21:54:07;;;;;;;34.92;21.75;;;;;;;4.57;70.90;101887.41;5031832;28;20104;-88
2020/12/25 21:56:34;;;;;;;19.55;7.88;;;;;;;4.37;71.94;101886.94;5031487;28;20112;-88
2020/12/25 21:59:00;;;;;;;10.75;5.28;;;;;;;4.52;72.12;101891.84;5030243;28;20415;-88
2020/12/25 22:01:26;;;;;;;17.42;6.60;;;;;;;4.65;71.98;101892.44;5031562;28;20017;-88
2020/12/25 22:03:52;;;;;;;13.85;6.57;;;;;;;4.76;71.80;101894.88;5031974;28;20086;-89
2020/12/25 22:06:19;;;;;;;11.90;6.93;;;;;;;4.69;72.13;101886.31;5030060;28;20021;-88
2020/12/25 22:08:45;;;;;;;76.43;35.60;;;;;;;4.75;71.61;101878.38;5030168;28;20034;-88
2020/12/25 22:11:11;;;;;;;79.43;36.95;;;;;;;4.81;71.70;101884.34;5024731;28;20029;-89
2020/12/25 22:13:36;;;;;;;22.95;10.48;;;;;;;4.81;72.37;101868.72;5018248;28;20030;-88
2020/12/25 22:16:02;;;;;;;15.80;8.95;;;;;;;4.83;72.17;101860.00;5027405;28;20456;-88
2020/12/25 22:18:27;;;;;;;11.23;6.30;;;;;;;4.73;72.42;101872.34;5031333;28;20066;-88
2020/12/25 22:20:52;;;;;;;12.27;6.25;;;;;;;4.86;72.63;101874.69;5031358;28;20056;-88
2020/12/25 22:23:18;;;;;;;7.53;5.63;;;;;;;4.88;72.90;101868.59;5030537;28;20108;-88
2020/12/25 22:25:43;;;;;;;13.27;5.78;;;;;;;4.91;72.47;101870.25;5031519;28;20037;-88